Time;durP1;ratioP1;P1;durP2;ratioP2;P2;SDS_P1;SDS_P2;PMS_P1;PMS_P2;Temp;Humidity;BMP_temperature;BMP_pressure;BME280_temperature;BME280_humidity;BME280_pressure;Samples;Min_cycle;Max_cycle;Signal;HPM_P1;HPM_P2
2021/12/27 00:02:16;;;;;;;17.97;11.13;;;;;;;;;;10429753;28;20021;-50
2021/12/27 00:07:17;;;;;;;25.40;11.65;;;;;;;;;;10429335;28;20469;-51
2021/12/27 00:12:17;;;;;;;18.00;11.77;;;;;;;;;;10428933;28;20037;-56
2021/12/27 00:17:18;;;;;;;17.23;10.73;;;;;;;;;;10430406;28;20029;-56
2021/12/27 00:22:18;;;;;;;19.80;11.13;;;;;;;;;;10430140;28;21024;-57
2021/12/27 00:27:19;;;;;;;20.88;11.32;;;;;;;;;;10429676;28;20811;-41
2021/12/27 00:32:19;;;;;;;25.90;11.68;;;;;;;;;;10432977;28;20476;-41
2021/12/27 00:37:19;;;;;;;15.93;11.73;;;;;;;;;;10446304;28;20034;-43
2021/12/27 00:42:20;;;;;;;16.37;10.07;;;;;;;;;;10451150;28;20819;-52
2021/12/27 00:47:20;;;;;;;15.60;11.10;;;;;;;;;;10450971;28;20824;-48
2021/12/27 00:52:21;;;;;;;17.00;10.95;;;;;;;;;;10437508;28;20508;-51
2021/12/27 00:57:21;;;;;;;16.93;11.50;;;;;;;;;;10450353;28;20060;-40
2021/12/27 01:02:21;;;;;;;18.83;11.23;;;;;;;;;;10450186;28;20450;-41
2021/12/27 01:07:22;;;;;;;15.73;11.13;;;;;;;;;;10445548;28;20467;-42
2021/12/27 01:17:23;;;;;;;19.23;11.40;;;;;;;;;;10449691;28;21055;-42
2021/12/27 01:22:23;;;;;;;15.30;10.80;;;;;;;;;;10446469;28;20584;-49
2021/12/27 01:27:23;;;;;;;14.83;11.93;;;;;;;;;;10443915;28;20531;-41
2021/12/27 01:32:27;;;;;;;16.77;10.90;;;;;;;;;;10449870;28;20467;-41
2021/12/27 01:37:27;;;;;;;12.52;10.13;;;;;;;;;;10447245;28;20033;-41
2021/12/27 01:42:28;;;;;;;22.77;11.40;;;;;;;;;;10446450;28;20045;-51
2021/12/27 01:47:30;;;;;;;17.27;11.15;;;;;;;;;;10451591;28;20478;-45
2021/12/27 01:52:30;;;;;;;14.25;10.95;;;;;;;;;;10457431;28;20052;-41
2021/12/27 01:57:30;;;;;;;17.63;10.87;;;;;;;;;;10456309;28;20507;-41
2021/12/27 02:02:31;;;;;;;14.57;10.50;;;;;;;;;;10430534;28;20516;-40
2021/12/27 02:07:32;;;;;;;14.32;10.90;;;;;;;;;;10455534;28;20041;-41
2021/12/27 02:12:32;;;;;;;16.30;11.20;;;;;;;;;;10456179;28;20021;-57
2021/12/27 02:17:33;;;;;;;15.65;11.38;;;;;;;;;;10454438;28;20859;-41
2021/12/27 02:22:36;;;;;;;14.48;11.35;;;;;;;;;;10456242;28;20164;-40
2021/12/27 02:27:37;;;;;;;13.63;10.23;;;;;;;;;;10455231;28;20067;-41
2021/12/27 02:32:48;;;;;;;14.85;11.38;;;;;;;;;;10448709;28;20022;-40
2021/12/27 02:37:49;;;;;;;15.35;10.98;;;;;;;;;;10453947;28;20029;-40
2021/12/27 02:43:03;;;;;;;19.73;10.77;;;;;;;;;;10446608;28;20033;-40
2021/12/27 02:48:05;;;;;;;14.88;10.80;;;;;;;;;;10444604;28;20087;-41
2021/12/27 02:53:06;;;;;;;13.82;10.85;;;;;;;;;;10435416;28;20055;-40
2021/12/27 02:58:07;;;;;;;15.63;11.13;;;;;;;;;;10454209;28;20477;-40
2021/12/27 03:03:08;;;;;;;14.02;10.55;;;;;;;;;;10454689;28;20061;-40
2021/12/27 03:08:13;;;;;;;14.45;10.55;;;;;;;;;;10435685;28;20046;-41
2021/12/27 03:13:23;;;;;;;19.08;9.95;;;;;;;;;;10461492;28;20028;-41
2021/12/27 03:18:24;;;;;;;14.68;10.35;;;;;;;;;;10454040;28;20055;-40
2021/12/27 03:23:24;;;;;;;14.60;10.90;;;;;;;;;;10464089;28;20540;-40
2021/12/27 03:28:25;;;;;;;13.90;10.15;;;;;;;;;;10439532;28;20035;-42
2021/12/27 03:33:26;;;;;;;14.50;10.75;;;;;;;;;;10453435;28;20490;-48
2021/12/27 03:38:32;;;;;;;14.48;10.10;;;;;;;;;;10452977;28;20438;-41
2021/12/27 03:43:32;;;;;;;15.35;10.20;;;;;;;;;;10438630;28;20028;-41
2021/12/27 03:48:32;;;;;;;19.60;10.40;;;;;;;;;;10440311;28;20031;-42
2021/12/27 03:53:33;;;;;;;12.90;10.33;;;;;;;;;;10452751;28;20056;-41
2021/12/27 03:58:47;;;;;;;14.93;10.50;;;;;;;;;;10442254;28;20468;-40
2021/12/27 04:03:50;;;;;;;13.48;9.73;;;;;;;;;;10452115;28;20451;-39
2021/12/27 04:08:51;;;;;;;12.45;9.80;;;;;;;;;;10451837;28;20053;-55
2021/12/27 04:13:52;;;;;;;12.88;9.77;;;;;;;;;;10450358;28;20029;-55
2021/12/27 04:18:52;;;;;;;13.63;9.97;;;;;;;;;;10428896;28;20376;-53
2021/12/27 04:23:52;;;;;;;12.50;9.53;;;;;;;;;;10451364;28;20490;-53
2021/12/27 04:28:53;;;;;;;13.17;10.03;;;;;;;;;;10450509;28;20496;-57
2021/12/27 04:33:53;;;;;;;13.37;10.20;;;;;;;;;;10432477;28;20029;-53
2021/12/27 04:38:53;;;;;;;13.77;10.73;;;;;;;;;;10451166;28;20036;-54
2021/12/27 04:43:54;;;;;;;14.65;10.27;;;;;;;;;;10449449;28;20833;-40
2021/12/27 04:48:55;;;;;;;11.82;9.73;;;;;;;;;;10432986;28;20029;-43
2021/12/27 04:53:56;;;;;;;13.00;10.25;;;;;;;;;;10433078;28;20028;-56
2021/12/27 04:58:56;;;;;;;13.75;9.98;;;;;;;;;;10449590;28;20484;-52
2021/12/27 05:03:56;;;;;;;11.90;9.37;;;;;;;;;;10449952;28;20028;-51
2021/12/27 05:08:57;;;;;;;14.63;10.00;;;;;;;;;;10444847;28;20604;-54
2021/12/27 05:13:57;;;;;;;13.30;9.10;;;;;;;;;;10450100;28;20454;-54
2021/12/27 05:18:58;;;;;;;14.25;9.77;;;;;;;;;;10439504;28;20612;-40
2021/12/27 05:23:58;;;;;;;11.73;8.95;;;;;;;;;;10431438;28;20018;-40
2021/12/27 05:28:59;;;;;;;13.00;9.27;;;;;;;;;;10440746;28;20028;-40
2021/12/27 05:33:59;;;;;;;14.32;9.77;;;;;;;;;;10432763;28;20032;-40
2021/12/27 05:39:00;;;;;;;12.00;8.60;;;;;;;;;;10447387;28;20036;-40
2021/12/27 05:44:00;;;;;;;13.98;8.63;;;;;;;;;;10447549;28;20880;-41
2021/12/27 05:49:01;;;;;;;13.27;9.17;;;;;;;;;;10440352;28;20116;-41
2021/12/27 05:54:01;;;;;;;12.63;9.50;;;;;;;;;;10449135;28;20977;-57
2021/12/27 05:59:02;;;;;;;12.67;8.87;;;;;;;;;;10422161;28;20400;-57
2021/12/27 06:04:03;;;;;;;12.35;9.55;;;;;;;;;;10416084;28;20024;-56
2021/12/27 06:09:04;;;;;;;11.63;9.35;;;;;;;;;;10447992;28;20048;-56
2021/12/27 06:14:05;;;;;;;12.07;9.30;;;;;;;;;;10437564;28;20226;-56
2021/12/27 06:19:05;;;;;;;12.83;9.10;;;;;;;;;;10440752;28;20145;-56
2021/12/27 06:24:06;;;;;;;11.70;9.67;;;;;;;;;;10447617;28;21010;-57
2021/12/27 06:29:06;;;;;;;11.88;8.98;;;;;;;;;;10443182;28;20503;-58
2021/12/27 06:34:06;;;;;;;11.18;9.05;;;;;;;;;;10424032;28;20479;-57
2021/12/27 06:39:08;;;;;;;12.30;8.73;;;;;;;;;;10455419;28;20036;-54
2021/12/27 06:44:08;;;;;;;12.43;8.88;;;;;;;;;;10455508;28;20028;-56
2021/12/27 06:49:09;;;;;;;10.02;8.50;;;;;;;;;;10436231;28;20036;-56
2021/12/27 06:54:09;;;;;;;10.07;8.60;;;;;;;;;;10452884;28;20033;-55
2021/12/27 06:59:09;;;;;;;10.57;8.63;;;;;;;;;;10454812;28;20450;-57
2021/12/27 07:04:10;;;;;;;10.17;8.20;;;;;;;;;;10451638;28;20087;-54
2021/12/27 07:09:10;;;;;;;10.30;8.13;;;;;;;;;;10423533;28;20824;-55
2021/12/27 07:14:10;;;;;;;11.27;8.60;;;;;;;;;;10454370;28;20155;-54
2021/12/27 07:19:11;;;;;;;10.98;8.02;;;;;;;;;;10454021;28;20028;-53
2021/12/27 07:24:11;;;;;;;12.20;8.27;;;;;;;;;;10435642;28;20029;-55
2021/12/27 07:29:12;;;;;;;10.40;8.15;;;;;;;;;;10453742;28;20473;-54
2021/12/27 07:34:13;;;;;;;9.63;7.70;;;;;;;;;;10453665;28;20017;-56
2021/12/27 07:39:14;;;;;;;11.27;7.65;;;;;;;;;;10451559;28;20893;-53
2021/12/27 07:44:15;;;;;;;9.23;7.13;;;;;;;;;;10452682;28;20159;-51
2021/12/27 07:49:16;;;;;;;10.27;7.93;;;;;;;;;;10458582;28;20025;-53
2021/12/27 07:54:16;;;;;;;8.57;7.22;;;;;;;;;;10452072;28;20373;-53
2021/12/27 07:59:17;;;;;;;8.90;7.50;;;;;;;;;;10448000;28;20801;-52
2021/12/27 08:04:17;;;;;;;8.30;7.00;;;;;;;;;;10451205;28;20048;-50
2021/12/27 08:09:18;;;;;;;9.87;7.57;;;;;;;;;;10435714;28;20847;-52
2021/12/27 08:14:18;;;;;;;14.82;7.25;;;;;;;;;;10437708;28;20414;-55
2021/12/27 08:19:18;;;;;;;14.23;8.03;;;;;;;;;;10445771;28;20095;-57
2021/12/27 08:24:19;;;;;;;14.27;7.73;;;;;;;;;;10441177;28;20605;-56
2021/12/27 08:29:19;;;;;;;11.17;7.57;;;;;;;;;;10414981;28;20465;-58
2021/12/27 08:34:19;;;;;;;13.97;7.80;;;;;;;;;;10425310;28;20092;-55
2021/12/27 08:39:20;;;;;;;9.53;7.00;;;;;;;;;;10412262;28;20990;-58
2021/12/27 08:44:20;;;;;;;9.23;7.22;;;;;;;;;;10433723;28;20486;-57
2021/12/27 08:49:21;;;;;;;11.10;6.80;;;;;;;;;;10449205;28;20025;-57
2021/12/27 08:54:21;;;;;;;12.13;7.03;;;;;;;;;;10432175;28;20993;-57
2021/12/27 08:59:22;;;;;;;9.20;7.20;;;;;;;;;;10425981;28;20462;-57
2021/12/27 09:04:23;;;;;;;10.10;7.10;;;;;;;;;;10439657;28;20120;-57
2021/12/27 09:09:23;;;;;;;7.53;6.47;;;;;;;;;;10433743;28;20080;-56
2021/12/27 09:14:25;;;;;;;13.50;6.63;;;;;;;;;;10436339;28;20051;-54
2021/12/27 09:19:25;;;;;;;10.82;6.63;;;;;;;;;;10438004;28;20025;-57
2021/12/27 09:24:28;;;;;;;9.60;6.70;;;;;;;;;;10435478;28;20507;-58
2021/12/27 09:29:28;;;;;;;8.25;6.25;;;;;;;;;;10436315;28;20478;-57
2021/12/27 09:34:29;;;;;;;9.80;5.75;;;;;;;;;;10425600;28;20026;-57
2021/12/27 09:39:29;;;;;;;7.72;6.68;;;;;;;;;;10434614;28;20044;-57
2021/12/27 09:44:34;;;;;;;8.20;5.90;;;;;;;;;;10430911;28;20469;-57
2021/12/27 09:49:34;;;;;;;9.43;6.30;;;;;;;;;;10429055;28;20484;-58
2021/12/27 09:54:35;;;;;;;11.07;6.10;;;;;;;;;;10419785;28;20028;-57
2021/12/27 09:59:36;;;;;;;16.20;6.43;;;;;;;;;;10418592;28;20469;-54
2021/12/27 10:04:36;;;;;;;10.93;6.20;;;;;;;;;;10439972;28;20104;-58
2021/12/27 10:09:38;;;;;;;12.43;6.05;;;;;;;;;;10436352;28;20856;-58
2021/12/27 10:14:38;;;;;;;21.73;8.93;;;;;;;;;;10422218;28;20039;-58
2021/12/27 10:19:39;;;;;;;17.45;7.03;;;;;;;;;;10444559;28;20025;-58
2021/12/27 10:24:40;;;;;;;15.73;7.50;;;;;;;;;;10431900;28;20033;-58
2021/12/27 10:29:40;;;;;;;12.27;6.97;;;;;;;;;;10435218;28;20096;-57
2021/12/27 10:34:45;;;;;;;17.52;6.95;;;;;;;;;;10429882;28;20034;-56
2021/12/27 10:39:49;;;;;;;15.45;6.80;;;;;;;;;;10420469;28;20032;-58
2021/12/27 10:44:53;;;;;;;14.00;7.10;;;;;;;;;;10430860;28;20025;-59
2021/12/27 10:49:55;;;;;;;10.77;6.95;;;;;;;;;;10449059;28;20392;-59
2021/12/27 10:55:01;;;;;;;17.35;7.75;;;;;;;;;;10433332;28;20032;-56
2021/12/27 11:00:18;;;;;;;12.48;6.88;;;;;;;;;;10451542;28;20032;-53
2021/12/27 11:05:24;;;;;;;14.65;7.85;;;;;;;;;;10442507;28;20029;-57
2021/12/27 11:10:26;;;;;;;14.75;6.88;;;;;;;;;;10442644;28;20049;-50
2021/12/27 11:15:31;;;;;;;20.05;7.30;;;;;;;;;;10436448;28;20074;-58
2021/12/27 11:20:32;;;;;;;16.92;7.80;;;;;;;;;;10391440;28;20477;-47
2021/12/27 11:25:36;;;;;;;14.82;6.97;;;;;;;;;;10360812;28;20021;-42
2021/12/27 11:30:37;;;;;;;12.70;6.95;;;;;;;;;;10363934;28;20056;-44
2021/12/27 11:35:59;;;;;;;9.52;6.97;;;;;;;;;;10372587;28;20522;-44
2021/12/27 11:41:03;;;;;;;9.38;6.75;;;;;;;;;;10365914;28;20892;-44
2021/12/27 11:46:05;;;;;;;13.85;6.35;;;;;;;;;;10375567;28;20033;-48
2021/12/27 11:51:08;;;;;;;11.85;7.25;;;;;;;;;;10366190;28;20029;-46
2021/12/27 11:56:10;;;;;;;13.45;6.47;;;;;;;;;;10369870;28;20029;-45
2021/12/27 12:01:20;;;;;;;11.52;6.63;;;;;;;;;;10380081;28;20037;-45
2021/12/27 12:06:40;;;;;;;12.30;6.68;;;;;;;;;;10368513;28;20045;-47
2021/12/27 12:11:42;;;;;;;13.55;6.68;;;;;;;;;;10388745;28;20033;-49
2021/12/27 12:16:46;;;;;;;10.13;6.78;;;;;;;;;;10364529;28;20029;-47
2021/12/27 12:21:52;;;;;;;10.93;7.30;;;;;;;;;;10380777;28;20040;-47
2021/12/27 12:27:00;;;;;;;9.75;6.93;;;;;;;;;;10383934;28;20029;-44
2021/12/27 12:32:03;;;;;;;10.82;7.00;;;;;;;;;;10375009;28;20539;-43
2021/12/27 12:37:08;;;;;;;14.18;7.00;;;;;;;;;;10390010;28;20033;-48
2021/12/27 12:42:10;;;;;;;10.85;7.10;;;;;;;;;;10358550;28;20196;-47
2021/12/27 12:47:11;;;;;;;14.20;6.97;;;;;;;;;;10378830;28;20044;-42
2021/12/27 12:52:11;;;;;;;11.93;6.67;;;;;;;;;;10394669;28;20026;-47
2021/12/27 12:57:17;;;;;;;8.98;6.18;;;;;;;;;;10396583;28;21000;-58
2021/12/27 13:02:25;;;;;;;10.52;6.57;;;;;;;;;;10412594;28;20635;-59
2021/12/27 13:07:46;;;;;;;10.55;6.45;;;;;;;;;;10415159;28;20531;-59
2021/12/27 13:12:47;;;;;;;14.55;6.80;;;;;;;;;;10432987;28;20025;-58
2021/12/27 13:18:14;;;;;;;12.60;7.38;;;;;;;;;;10429355;28;20029;-59
2021/12/27 13:23:20;;;;;;;16.73;6.43;;;;;;;;;;10415221;28;20029;-56
2021/12/27 13:28:25;;;;;;;24.25;7.13;;;;;;;;;;10425287;28;20029;-51
2021/12/27 13:33:42;;;;;;;10.20;6.32;;;;;;;;;;10431541;28;20032;-49
2021/12/27 18:05:19;;;;;;;17.52;4.65;;;;;;;;;;10448095;27;20728;-78
2021/12/27 18:10:35;;;;;;;10.63;6.55;;;;;;;;;;10328441;28;20081;-77
2021/12/27 18:15:35;;;;;;;15.35;7.60;;;;;;;;;;10312305;28;20042;-78
2021/12/27 18:20:39;;;;;;;18.95;6.05;;;;;;;;;;10358567;28;20427;-76
2021/12/27 18:25:47;;;;;;;6.95;4.88;;;;;;;;;;10369905;28;20109;-77
2021/12/27 18:30:47;;;;;;;12.48;4.28;;;;;;;;;;10344111;28;20362;-76
2021/12/27 18:43:26;;;;;;;29.48;6.50;;;;;;;;;;10485496;27;20679;-83
2021/12/27 18:48:27;;;;;;;22.45;6.88;;;;;;;;;;10437055;28;20036;-83
2021/12/27 18:53:29;;;;;;;30.15;7.32;;;;;;;;;;10453206;28;20477;-83
2021/12/27 19:04:31;;;;;;;38.58;8.70;;;;;;;;;;10425409;28;20571;-82
2021/12/27 19:09:34;;;;;;;28.55;7.95;;;;;;;;;;10430119;28;20025;-83
2021/12/27 19:14:34;;;;;;;31.08;6.82;;;;;;;;;;10437214;28;20554;-83
2021/12/27 19:19:35;;;;;;;18.77;5.97;;;;;;;;;;10445454;28;20478;-83
2021/12/27 19:24:35;;;;;;;21.25;5.80;;;;;;;;;;10429062;28;20073;-83
2021/12/27 19:29:38;;;;;;;21.27;5.47;;;;;;;;;;10428889;28;20017;-83
2021/12/27 19:34:39;;;;;;;24.38;5.45;;;;;;;;;;10436571;28;20036;-82
2021/12/27 19:39:39;;;;;;;12.60;4.28;;;;;;;;;;10384257;28;20058;-82
2021/12/27 19:44:40;;;;;;;12.60;4.10;;;;;;;;;;10360732;28;20497;-83
2021/12/27 19:49:41;;;;;;;11.45;3.70;;;;;;;;;;10348097;28;20037;-83
2021/12/27 19:54:42;;;;;;;13.98;4.25;;;;;;;;;;10336849;28;20034;-83
2021/12/27 19:59:43;;;;;;;11.05;3.40;;;;;;;;;;10342877;23;21600;-78
2021/12/27 20:10:11;;;;;;;13.48;3.40;;;;;;;;;;10262006;28;20050;-82
2021/12/27 20:15:11;;;;;;;9.57;2.80;;;;;;;;;;10256957;28;20035;-82
2021/12/27 20:20:12;;;;;;;15.68;2.90;;;;;;;;;;10264841;28;20038;-82
2021/12/27 20:25:16;;;;;;;8.88;2.83;;;;;;;;;;10271910;28;20038;-82
2021/12/27 20:30:18;;;;;;;7.72;3.20;;;;;;;;;;10265409;28;20042;-82
2021/12/27 20:35:21;;;;;;;11.75;3.20;;;;;;;;;;10284353;28;20042;-81
2021/12/27 20:40:23;;;;;;;13.02;2.80;;;;;;;;;;10296225;28;20042;-82
2021/12/27 20:45:28;;;;;;;4.20;2.40;;;;;;;;;;10287522;28;20041;-82
2021/12/27 20:50:31;;;;;;;11.13;3.17;;;;;;;;;;10280767;28;20113;-82
2021/12/27 20:55:32;;;;;;;21.85;4.00;;;;;;;;;;10271558;28;20035;-82
2021/12/27 21:00:36;;;;;;;16.48;3.72;;;;;;;;;;10266839;28;20043;-83
2021/12/27 21:36:05;;;;;;;9.48;2.50;;;;;;;;;;9905493;29;20054;-82
2021/12/27 21:41:05;;;;;;;7.72;2.30;;;;;;;;;;10072146;29;20140;-82
2021/12/27 21:46:07;;;;;;;7.57;2.05;;;;;;;;;;10054480;29;20061;-78
2021/12/27 21:51:08;;;;;;;10.10;2.42;;;;;;;;;;10035034;29;20138;-82
2021/12/27 21:56:08;;;;;;;14.27;1.90;;;;;;;;;;10025291;29;20099;-82
2021/12/27 22:01:09;;;;;;;9.73;2.13;;;;;;;;;;10035153;29;20464;-82
2021/12/27 22:06:09;;;;;;;3.72;1.85;;;;;;;;;;10137678;29;20506;-80
2021/12/27 22:11:10;;;;;;;8.10;2.40;;;;;;;;;;10209945;29;20051;-80
2021/12/27 22:16:10;;;;;;;19.23;4.95;;;;;;;;;;10195647;29;20055;-80
2021/12/27 22:21:11;;;;;;;13.50;4.40;;;;;;;;;;10202428;29;20074;-80
2021/12/27 22:32:12;;;;;;;14.68;4.13;;;;;;;;;;9962465;29;20499;-80
2021/12/27 22:37:17;;;;;;;13.27;3.33;;;;;;;;;;10201108;29;20372;-80
2021/12/27 22:42:18;;;;;;;6.70;3.10;;;;;;;;;;10219481;29;20143;-80
2021/12/27 22:47:18;;;;;;;10.80;3.70;;;;;;;;;;10220119;29;20045;-80
2021/12/27 22:52:19;;;;;;;6.65;2.83;;;;;;;;;;10206534;28;20066;-80
2021/12/27 22:57:20;;;;;;;5.40;2.92;;;;;;;;;;10225480;29;20043;-79
2021/12/27 23:02:21;;;;;;;12.98;3.38;;;;;;;;;;10234899;29;20039;-79
2021/12/27 23:07:21;;;;;;;15.98;3.55;;;;;;;;;;10198446;29;20093;-78
2021/12/27 23:12:23;;;;;;;27.60;4.00;;;;;;;;;;10195682;29;20027;-78
2021/12/27 23:17:24;;;;;;;11.65;3.20;;;;;;;;;;10202597;29;20035;-78
2021/12/27 23:22:25;;;;;;;20.40;2.72;;;;;;;;;;10217951;29;20031;-78
2021/12/27 23:27:25;;;;;;;12.00;3.42;;;;;;;;;;10221538;28;20442;-78
